Latest Weather Observations for Rottnest Island

IDW60801

Issued at 6:33 am WST Tuesday 27 September 2022 (issued every 10 minutes, with the page automatically refreshed every 10 minutes)

About weather observations | Map of weather stations | Latest weather observations for WA | Other Formats
Station Details ID: 009193 Name: ROTTNEST ISLAND Lat: -32.01 Lon: 115.50 Height: 43.1 m
Data from the previous 72 hours. | See also: Recent months at Rottnest Island
Date/Time
WST
Temp
°C
App
Temp
°C
Dew
Point
°C
Rel
Hum
%
Delta-T
°C
Wind Press
QNH
hPa
Press
MSL
hPa
Rain since
9am
mm
Dir  Spd
km/h
Gust
km/h
Spd
kts
Gust
kts
27/06:30am 14.3 12.1 14.3 100 0.0 SSE 19 22 10 12 1023.0 1023.0 0.0
27/06:00am 13.9 11.9 13.9 100 0.0 SE 17 20 9 11 1023.0 1023.0 0.0
27/05:30am 14.3 12.4 14.3 100 0.0 SE 17 22 9 12 1022.7 1022.7 0.0
27/05:00am 14.5 11.8 14.5 100 0.0 SSE 22 28 12 15 1022.5 1022.5 0.0
27/04:30am 14.6 11.5 14.6 100 0.0 SSE 24 30 13 16 1022.5 1022.5 0.0
27/04:00am 14.5 10.9 14.3 99 0.1 SSE 26 32 14 17 1022.3 1022.3 0.0
27/03:30am 14.7 11.2 14.5 99 0.1 SSE 26 32 14 17 1022.3 1022.3 0.0
27/03:00am 14.9 11.1 14.6 98 0.2 SSE 28 33 15 18 1022.4 1022.4 0.0
27/02:30am 14.9 11.1 14.7 99 0.1 SSE 28 35 15 19 1022.7 1022.7 0.0
27/02:00am 15.0 10.9 14.8 99 0.1 SSE 30 35 16 19 1023.0 1023.0 0.0
27/01:30am 15.3 11.9 14.8 97 0.3 SSE 26 32 14 17 1023.4 1023.4 0.0
27/01:00am 15.4 11.9 14.6 95 0.5 SSE 26 33 14 18 1023.4 1023.4 0.0
27/12:30am 15.6 12.1 14.6 94 0.6 SSE 26 32 14 17 1023.7 1023.7 0.0
27/12:00am 15.6 11.6 14.1 91 0.8 SSE 28 35 15 19 1023.9 1023.9 0.0
 
Date/Time
WST
Temp
°C
App
Temp
°C
Dew
Point
°C
Rel
Hum
%
Delta-T
°C
Wind Press
QNH
hPa
Press
MSL
hPa
Rain since
9am
mm
Dir  Spd
km/h
Gust
km/h
Spd
kts
Gust
kts
26/11:30pm 15.7 11.3 12.8 83 1.6 SSE 28 35 15 19 1024.3 1024.3 0.0
26/11:00pm 15.6 11.4 13.4 87 1.2 S 28 33 15 18 1024.5 1024.5 0.0
26/10:30pm 15.7 11.3 13.0 84 1.5 SSE 28 33 15 18 1024.5 1024.5 0.0
26/10:00pm 15.8 10.6 12.9 83 1.6 SSE 32 39 17 21 1024.4 1024.4 0.0
26/09:30pm 15.9 10.8 13.0 83 1.6 SSE 32 37 17 20 1024.6 1024.6 0.0
26/09:00pm 16.0 10.6 12.7 81 1.8 SSE 33 41 18 22 1024.5 1024.5 0.0
26/08:30pm 16.0 10.1 12.4 79 2.0 S 35 41 19 22 1024.5 1024.5 0.0
26/08:00pm 16.0 10.2 12.6 80 1.9 S 35 41 19 22 1024.4 1024.4 0.0
26/07:30pm 15.9 9.8 11.7 76 2.3 S 35 41 19 22 1024.2 1024.2 0.0
26/07:00pm 16.0 10.5 12.0 77 2.2 S 32 41 17 22 1023.9 1023.9 0.0
26/06:30pm 15.9 10.4 11.9 77 2.2 S 32 39 17 21 1023.7 1023.7 0.0
26/06:00pm 16.0 10.7 11.2 73 2.6 S 30 37 16 20 1023.6 1023.6 0.0
26/05:30pm 16.3 11.0 11.2 72 2.7 S 30 39 16 21 1023.6 1023.6 0.0
26/05:00pm 16.6 11.4 11.7 73 2.7 S 30 37 16 20 1023.6 1023.6 0.0
26/04:30pm 17.1 11.5 11.6 70 3.0 S 32 37 17 20 1023.6 1023.6 0.0
26/04:00pm 17.3 11.7 11.6 69 3.1 SSW 32 39 17 21 1023.5 1023.5 0.0
26/03:30pm 17.4 12.2 11.7 69 3.1 SSW 30 35 16 19 1023.6 1023.6 0.0
26/03:00pm 17.4 12.5 11.4 68 3.2 S 28 33 15 18 1023.8 1023.8 0.0
26/02:30pm 17.2 12.4 11.7 70 3.0 SSW 28 33 15 18 1024.3 1024.3 0.0
26/02:00pm 17.6 13.4 12.3 71 2.9 SSW 26 32 14 17 1024.6 1024.6 0.0
26/01:30pm 17.5 13.8 12.8 74 2.6 SSW 24 32 13 17 1024.9 1024.9 0.0
26/01:00pm 17.5 14.3 13.0 75 2.5 SSW 22 26 12 14 1025.3 1025.3 0.0
26/12:30pm 16.5 13.3 11.9 74 2.5 SSW 20 24 11 13 1025.6 1025.6 0.0
26/12:00pm 16.9 14.4 12.2 74 2.6 S 17 20 9 11 1026.1 1026.1 0.0
26/11:30am 16.8 14.2 11.9 73 2.7 S 17 20 9 11 1026.5 1026.5 0.0
26/11:00am 16.4 14.1 11.6 73 2.6 SSE 15 20 8 11 1026.6 1026.6 0.0
26/10:30am 16.0 13.3 11.6 75 2.4 SSE 17 20 9 11 1026.8 1026.8 0.0
26/10:00am 15.8 13.0 11.4 75 2.4 SSE 17 20 9 11 1026.8 1026.8 0.0
26/09:30am 15.5 13.3 10.9 74 2.5 SE 13 19 7 10 1027.0 1027.0 0.0
26/09:00am 15.6 13.3 10.6 72 2.6 ESE 13 19 7 10 1027.0 1027.0 0.0
26/08:30am 14.8 11.6 9.8 72 2.6 SE 17 28 9 15 1027.0 1027.0 0.0
26/08:00am 14.8 11.6 10.0 73 2.5 SE 17 22 9 12 1027.0 1027.0 0.0
26/07:30am 14.3 11.3 9.3 72 2.6 ESE 15 20 8 11 1026.8 1026.8 0.0
26/07:00am 13.6 11.7 10.4 81 1.7 SE 11 17 6 9 1026.6 1026.6 0.0
26/06:30am 12.8 10.2 10.7 87 1.1 ESE 15 24 8 13 1026.3 1026.3 0.0
26/06:00am 12.4 9.7 10.5 88 1.0 ESE 15 20 8 11 1026.0 1026.0 0.0
26/05:30am 12.5 10.2 10.6 88 1.0 SE 13 20 7 11 1025.8 1025.8 0.0
26/05:00am 12.6 9.8 11.3 92 0.7 SE 17 22 9 12 1025.5 1025.5 0.0
26/04:30am 13.0 9.9 11.7 92 0.7 SE 19 28 10 15 1025.2 1025.2 0.0
26/04:00am 13.2 9.5 11.6 90 0.8 SE 22 28 12 15 1025.0 1025.0 0.0
26/03:30am 13.4 9.3 11.5 88 1.0 SE 24 30 13 16 1024.8 1024.8 0.0
26/03:00am 13.6 8.6 11.1 85 1.3 SE 28 35 15 19 1024.5 1024.5 0.0
26/02:30am 13.9 9.1 11.8 87 1.1 SSE 28 33 15 18 1024.5 1024.5 0.0
26/02:00am 14.0 9.3 11.9 87 1.1 SSE 28 41 15 22 1024.5 1024.5 0.0
26/01:30am 14.3 9.7 12.2 87 1.1 SSE 28 35 15 19 1024.9 1024.9 0.0
26/01:00am 14.6 9.1 11.7 83 1.6 SSE 32 39 17 21 1024.7 1024.7 0.0
26/12:30am 14.7 9.3 12.2 85 1.4 SSE 32 39 17 21 1024.6 1024.6 0.0
26/12:00am 14.7 9.3 12.2 85 1.4 SSE 32 41 17 22 1024.9 1024.9 0.0
 
Date/Time
WST
Temp
°C
App
Temp
°C
Dew
Point
°C
Rel
Hum
%
Delta-T
°C
Wind Press
QNH
hPa
Press
MSL
hPa
Rain since
9am
mm
Dir  Spd
km/h
Gust
km/h
Spd
kts
Gust
kts
25/11:30pm 15.4 10.1 12.5 83 1.6 SSE 32 44 17 24 1024.8 1024.8 0.0
25/11:00pm 15.5 9.9 11.5 77 2.1 S 32 39 17 21 1024.9 1024.9 0.0
25/10:30pm 15.5 10.4 11.9 79 2.0 S 30 35 16 19 1025.0 1025.0 0.0
25/10:00pm 15.6 10.0 11.4 76 2.2 S 32 35 17 19 1025.0 1025.0 0.0
25/09:30pm 15.4 10.5 11.2 76 2.2 S 28 33 15 18 1025.1 1025.1 0.0
25/09:00pm 15.4 10.4 11.0 75 2.3 S 28 33 15 18 1024.9 1024.9 0.0
25/08:30pm 15.2 10.8 10.4 73 2.5 S 24 30 13 16 1024.7 1024.7 0.0
25/08:00pm 15.1 10.1 9.5 69 2.9 SSW 26 32 14 17 1024.6 1024.6 0.0
25/07:30pm 15.1 10.2 9.9 71 2.7 S 26 32 14 17 1024.1 1024.1 0.0
25/07:00pm 15.2 10.4 10.4 73 2.5 S 26 32 14 17 1023.7 1023.7 0.0
25/06:30pm 15.3 9.7 10.3 72 2.6 S 30 35 16 19 1023.7 1023.7 0.0
25/06:00pm 15.3 10.7 12.4 83 1.6 S 28 35 15 19 1023.5 1023.5 0.0
25/05:30pm 15.5 11.0 11.5 77 2.2 S 26 33 14 18 1023.4 1023.4 0.0
25/05:00pm 15.5 12.0 12.3 81 1.7 S 22 28 12 15 1023.0 1023.0 0.0
25/04:30pm 16.1 12.0 11.3 73 2.6 SSW 24 30 13 16 1022.7 1022.7 0.0
25/04:00pm 16.4 13.2 11.3 72 2.7 S 19 24 10 13 1022.6 1022.6 0.0
25/03:30pm 16.4 14.1 13.1 81 1.8 S 17 20 9 11 1022.5 1022.5 0.0
25/03:00pm 15.9 14.2 12.6 81 1.8 S 13 20 7 11 1022.5 1022.5 0.0
25/02:30pm 15.6 14.6 13.4 87 1.2 S 11 15 6 8 1022.5 1022.5 0.0
25/02:00pm 15.3 11.6 12.6 84 1.5 SW 24 30 13 16 1022.7 1022.7 0.0
25/01:30pm 16.5 14.6 10.6 68 3.1 SSW 11 17 6 9 1022.8 1022.8 0.0
25/01:00pm 16.2 13.0 11.4 73 2.6 WNW 19 28 10 15 1022.9 1022.9 0.0
25/12:30pm 16.6 13.9 10.2 66 3.4 WNW 15 20 8 11 1023.0 1023.0 0.0
25/12:00pm 16.9 15.1 11.0 68 3.2 SW 11 19 6 10 1023.0 1023.0 0.0
25/11:30am 15.8 14.1 9.7 67 3.2 NW 9 13 5 7 1023.3 1023.3 0.0
25/11:00am 15.7 12.9 8.7 63 3.6 NNW 13 19 7 10 1023.3 1023.3 0.0
25/10:30am 15.2 12.4 8.4 64 3.4 N 13 17 7 9 1023.4 1023.4 0.0
25/10:00am 16.0 13.4 9.4 65 3.4 N 13 17 7 9 1023.4 1023.4 0.0
25/09:30am 15.5 12.8 9.0 65 3.3 N 13 17 7 9 1023.3 1023.3 0.0
25/09:00am 15.4 13.1 9.1 66 3.2 NNE 11 17 6 9 1023.3 1023.3 0.0
25/08:30am 14.3 11.3 7.8 65 3.2 NE 13 15 7 8 1023.1 1023.1 0.0
25/08:00am 14.4 11.8 7.7 64 3.3 NE 11 13 6 7 1023.1 1023.1 0.0
25/07:30am 13.8 10.9 8.0 68 2.9 E 13 15 7 8 1022.8 1022.8 0.0
25/07:00am 12.8 9.8 7.9 72 2.4 E 13 15 7 8 1022.5 1022.5 0.0
25/06:30am 12.0 9.7 7.3 73 2.3 ESE 9 13 5 7 1022.3 1022.3 0.0
25/06:00am 11.8 9.0 7.1 73 2.2 ESE 11 13 6 7 1021.9 1021.9 0.0
25/05:30am 12.1 9.8 7.4 73 2.3 ESE 9 13 5 7 1021.6 1021.6 0.0
25/05:00am 11.7 8.6 7.4 75 2.1 ESE 13 17 7 9 1021.4 1021.4 0.0
25/04:30am 12.1 9.1 7.8 75 2.1 ESE 13 17 7 9 1021.2 1021.2 0.0
25/04:00am 12.1 8.7 7.8 75 2.1 ESE 15 17 8 9 1021.0 1021.0 0.0
25/03:30am 12.2 9.2 7.7 74 2.2 SE 13 17 7 9 1021.1 1021.1 0.0
25/03:00am 12.4 9.4 7.9 74 2.2 SE 13 20 7 11 1021.1 1021.1 0.0
25/02:30am 13.1 9.1 8.2 72 2.4 SSE 19 28 10 15 1020.8 1020.8 0.0
25/02:00am 13.4 9.3 8.5 72 2.4 SSE 20 26 11 14 1020.9 1020.9 0.0
25/01:30am 13.4 9.5 8.5 72 2.5 SE 19 30 10 16 1021.0 1021.0 0.0
25/01:00am 13.6 8.8 8.9 73 2.4 SE 24 30 13 16 1021.0 1021.0 0.0
25/12:30am 13.9 8.5 6.5 61 3.6 S 24 32 13 17 1021.0 1021.0 0.0
25/12:00am 13.7 7.9 7.9 68 2.9 S 28 37 15 20 1021.1 1021.1 0.0
 
Date/Time
WST
Temp
°C
App
Temp
°C
Dew
Point
°C
Rel
Hum
%
Delta-T
°C
Wind Press
QNH
hPa
Press
MSL
hPa
Rain since
9am
mm
Dir  Spd
km/h
Gust
km/h
Spd
kts
Gust
kts
24/11:30pm 13.4 8.2 8.7 73 2.4 SSW 26 35 14 19 1021.3 1021.3 0.0
24/11:00pm 14.1 7.9 9.3 73 2.4 SSW 32 41 17 22 1021.2 1021.2 0.0
24/10:30pm 14.5 9.3 8.7 68 2.9 SSW 26 33 14 18 1021.3 1021.3 0.0
24/10:00pm 14.3 8.5 7.8 65 3.2 S 28 35 15 19 1021.3 1021.3 0.0
24/09:30pm 14.3 8.2 6.6 60 3.7 S 28 32 15 17 1021.4 1021.4 0.0
24/09:00pm 14.2 8.2 7.0 62 3.5 S 28 33 15 18 1021.3 1021.3 0.0
24/08:30pm 14.3 7.7 5.9 57 4.0 S 30 37 16 20 1021.1 1021.1 0.0
24/08:00pm 14.1 7.3 6.9 62 3.5 SSW 32 41 17 22 1020.9 1020.9 0.0
24/07:30pm 14.2 7.4 7.5 64 3.3 S 33 39 18 21 1020.4 1020.4 0.0
24/07:00pm 14.4 8.1 7.5 63 3.4 S 30 43 16 23 1019.9 1019.9 0.0
24/06:30pm 14.3 8.1 8.0 66 3.1 SSW 30 39 16 21 1019.6 1019.6 0.0
24/06:00pm 14.3 7.7 7.8 65 3.2 S 32 41 17 22 1019.5 1019.4 0.0
24/05:30pm 14.2 8.4 7.9 66 3.1 SSW 28 33 15 18 1019.5 1019.4 0.0
24/05:00pm 14.4 8.4 8.8 69 2.8 S 30 37 16 20 1019.1 1019.0 0.0
24/04:30pm 14.3 7.7 7.8 65 3.2 S 32 41 17 22 1018.9 1018.8 0.0
24/04:00pm 15.4 9.1 8.9 65 3.3 S 32 50 17 27 1018.8 1018.7 0.0
24/03:51pm 15.3 8.8 8.3 63 3.5 S 32 50 17 27 1018.6 1018.5 0.0
24/03:30pm 15.3 9.7 8.8 65 3.3 S 28 37 15 20 1018.8 1018.7 0.0
24/03:00pm 15.5 8.9 7.8 60 3.8 S 32 41 17 22 1018.3 1018.2 0.0
24/02:30pm 15.6 9.1 8.1 61 3.8 S 32 43 17 23 1018.1 1018.0 0.0
24/02:00pm 15.0 8.3 7.5 61 3.7 SSE 32 41 17 22 1018.0 1017.9 0.0
24/01:30pm 16.2 9.6 8.4 60 4.0 S 33 44 18 24 1018.0 1017.9 0.0
24/01:00pm 14.4 6.0 7.2 62 3.5 SSE 41 52 22 28 1017.6 1017.5 0.0
24/12:30pm 14.5 8.0 8.2 66 3.2 SSE 32 41 17 22 1017.6 1017.5 0.0
24/12:00pm 14.8 8.1 8.3 65 3.3 S 33 43 18 23 1017.8 1017.7 0.0
24/11:30am 15.3 7.9 9.7 69 2.9 S 39 48 21 26 1017.8 1017.7 0.0
24/11:00am 14.3 7.5 9.1 71 2.6 SSE 35 46 19 25 1017.8 1017.7 0.0
24/10:30am 14.9 8.5 10.7 76 2.2 S 35 43 19 23 1017.6 1017.5 0.0
24/10:00am 13.4 5.9 9.6 78 1.9 SSE 39 46 21 25 1017.8 1017.7 0.0
24/09:30am 13.8 6.9 11.7 87 1.1 SSE 39 50 21 27 1017.7 1017.6 0.0
24/09:00am 13.3 7.6 13.0 98 0.2 SSE 35 46 19 25 1017.4 1017.3 1.8
24/08:30am 13.3 6.9 13.3 100 0.0 SSE 39 46 21 25 1017.3 1017.2 1.8
24/08:00am 12.5 8.0 12.5 100 0.0 SSE 28 39 15 21 1017.0 1016.9 1.8
24/07:30am 12.7 4.0 12.7 100 0.0 S 50 61 27 33 1016.1 1016.0 1.8
24/07:00am 12.5 6.3 12.5 100 0.0 SSE 37 46 20 25 1015.8 1015.7 1.4

Other formats

Comma delimited format used in spreadsheet applications
http://www.bom.gov.au/fwo/IDW60801/IDW60801.94602.axf

JavaScript Object Notation format (JSON) in row-major order
http://www.bom.gov.au/fwo/IDW60801/IDW60801.94602.json

Data quality

Most of these data are generated automatically and are frequently updated. Quality checks on data are not normally performed. It is possible for incorrect values to appear. Refer to information at About Latest Weather Observations and please check the disclaimer before using these data.